Patuxent River Naval Air Station/Trapnell Field Aiport
KNHK : now visible

Airfield :











YOU CAN JOIN US ON...

 
LOGIN :

Register | Disclaimer

   EN    FR    IT 

 









Legend :    VFR   Marginal VFR   IFR   Intensive IFR   Very Intensive IFR
Visi :
Ceiling :
>= 8 km
>= 3000ft
5 to 8 km
1000 to 3000 ft
1500m to 5 km
500 to 1000 ft
800 to 1500m
200 to 500 ft
< 800m
< 200 ft
Symbols :   Thunderstorms  Fog  Heavy snow  Heavy precipitations  Wind > 20 kt






- Airport Elevation : 39 ft


KNHK - Patuxent River Naval Air Station/Trapnell Field Aiport

CURRENT METAR :
  • 280652Z AUTO 00000KT CLR A2999 RMK AO2 CIG 110 RY24 SLP157 $

EXPIRED METARs :
  • 280552Z AUTO 00000KT FEW047 SCT065 11/09 A3000 RMK AO2 SLP159 T01110089 50000 $
  • 280452Z AUTO 00000KT BKN049 OVC065 12/09 A3001 RMK AO2 SLP161 T01170094 401780094 $

TAF TAF KNHK
Valid from the 27 at 23:00 until the 28 at 23:00 UTC


2723/2823 01006KT 9999 FEW030 QNH2996INS
BECMG 2801/2803 35006KT 9999 SCT028 BKN040 QNH2995INS
TEMPO 2801/2807 BKN028 OVC050
BECMG 2808/2810 32007KT 9999 FEW030 FEW100 QNH2997INS
BECMG 2813/2815 32011G16KT FEW045 QNH3003INS T07/2812Z T14/2820Z AUTOMATED SENSOR METWATCH 2804 TIL 2812 FN20066
KZDC FIR / North America



MET'MAP, your aeronautical weather chart ! - Copyright ORBIFLY December 2007 - Disclaimer

ORBIFLY MET'MAP TEAM :

Programming & Development : Alexandra Zaïnal
Concept & original design : Baudouin d'Aumeries
Assistance for programming : Marc-Olivier Méhu
Technical & hardware support : Manuel Goepfert

Contact : metmap@orbifly.com




SOURCES & CREDITS :

   NOAA       Earth
Advisory